CheckWX is a tool to help pilots better visualize weather data.  It is not intended as a substitute for an official pre-flight weather briefing.

06:16:12 UTC

LKLN METAR
Plzen Line Airport
Plzen, Czech Republic
Current

1 hour ago

LKLN 180500Z AUTO 21004KT 180V250 9999 ///////// 08/07 Q1004
Observed
Nov-18 @ 05:00 UTC
Wind
  • 210° at 4 KTS
Visibility
10,000+ meters
Temperature
C / 46°F
Dewpoint
C / 45°F
Humidity
93%
Altimeter
29.65" Hg
Pressure
1003.92 hPa
Previous

2 hours ago

LKLN 180400Z AUTO 22005KT 200V260 9999 ///////// 08/07 Q1004
Observed
Nov-18 @ 04:00 UTC
Wind
  • 220° at 5 KTS
Visibility
10,000+ meters
Temperature
C / 46°F
Dewpoint
C / 45°F
Humidity
93%
Altimeter
29.65" Hg
Pressure
1003.92 hPa
Previous

3 hours ago

LKLN 180300Z AUTO 23007KT 210V270 9999 ///////// 09/08 Q1003
Observed
Nov-18 @ 03:00 UTC
Wind
  • 230° at 7 KTS
Visibility
10,000+ meters
Temperature
C / 48°F
Dewpoint
C / 46°F
Humidity
94%
Altimeter
29.62" Hg
Pressure
1002.92 hPa